Decoded Metar for PWAK (WAKE ISLAND AIRF in _UNIDENTIFIED) (IATA:N/A) | Meteo·Mobile Aviation Weather
aviador You're here:

PWAK Decoded Metar

WAKE ISLAND AIRF in _UNIDENTIFIED
Report Time2019-02-22 14:58:00
UTC Time2019-02-22 15:11:31
Flight Rules vfr VFR
Wind070° at 04 kt
W.Decomp.*RWY 10: 3.2 kt HW 2.4 kt LCW
W.Rank070° ranks 1
Current wind is below 070° avg. (12.8)
Visibility9999 m
Phenomena:N/A
Clouds:N/A
Expected CloudBase > 2,000 ft AGL from Temp-Dew spread
CeilingNone
Temp23°C (ISA +8)
Dew Point18°C (74% RH)
QNH1015 hPa
Density Alt1,152 ft
Elevation13 ft
Report Wrong Elevation
Raw Report
PWAK 221458Z AUTO 07004KT 9999 CLR 23/18 A2997 RMK AO2 SLP155
57011=

Extra information for PWAK:More info

Metar Taf Metar & Taf Last 4 Metars F.Rules Stats Wind Profile Meteogram Temp Stats Airport Information Weather charts Add Link Nearby VenuesMetar ALERT Operation Metar Decoded Social comments